Белгород

Карта отелей и гостиниц, располагающихся рядом с аэропортом Белгород :



Белгород Белгородская область 50° 38' 37.7412" N, 36° 35' 24.36" E
Код аэродрома ИКАО: 
UUOB
Код аэродрома RU: 
УУОБ
Координаты: 
N50.64382° E036.59010°
Превышение над уровнем моря : 
224
Основная полоса: 
11L/29R
Курс магнитный: 
109/289
Длина основной ВПП: 
2420
Ширина основной ВПП: 
60
Покрытие основной ВПП: 
Нетвёрдое (грунт)
Тип: 
Аэродром
Освещение ВПП: 
Нет
Класс аэродрома: 
Международный
Статус: 
Действующий
Принадлежность: 
ГА
Страна: 
Россия
Регион: 
Белгородская область
Дополнительная информация: 
ДПРМ:718-"AN/BX"; БПРМ:350-"A/B". Нкр.=(500)м.
Погода: 

Авиационная погода в Белгороде

Регион: 
Погода METAR: 
UUOB 042300Z 17003MPS 9999 FEW043 12/08 Q1011 R29/010060 NOSIG
Время наблюдения: 
2020-06-04T23:00:00Z
Температура C: 
12.0
Точка росы: 
8.0
Направление ветра: 
170
Скорость ветра: 
6
Метеорологическая видимость: 
6.21
Условия полета: 
VFR
Аэропорт подробнее: 
Прогноз TAF: 

Найти трансфер

С помощью этой формы Вы можете найти трансфер из аэропорта Белгород в город, аэропорт или вокзал:

Карта места

Javascript is required to view this map.

Погода в аэропортах:

Авиационная погода в Грозном

Регион: 
Погода METAR: 
URMG 042300Z 31004MPS 9999 -SHRA SCT///CB BKN/// 17/14 Q1014 R08/090070 NOSIG RMK QFE746/0995
Время наблюдения: 
2020-06-04T23:00:00Z
Температура C: 
17.0
Точка росы: 
14.0
Направление ветра: 
310
Скорость ветра: 
8
Метеорологическая видимость: 
6.21
Явления погоды: 
-SHRA
Аэропорт подробнее: 

Авиационная погода в Чебоксарах

Регион: 
Погода METAR: 
UWKS 042300Z 21003MPS 4000 BR OVC007 15/14 Q1012 R06/010060 TEMPO 1000 BR OVC005 RMK QFE744
Время наблюдения: 
2020-06-04T23:00:00Z
Температура C: 
15.0
Точка росы: 
14.0
Направление ветра: 
210
Скорость ветра: 
6
Метеорологическая видимость: 
2.49
Явления погоды: 
BR
Условия полета: 
IFR
Аэропорт подробнее: 

Авиационная погода в Трабзоне

Регион: 
Погода METAR: 
LTCG 042250Z 16006KT 100V240 9999 -SHRA SCT035 BKN090 18/16 Q1018 NOSIG RMK RWY29 15005KT 110V180
Время наблюдения: 
2020-06-04T22:50:00Z
Температура C: 
18.0
Точка росы: 
16.0
Направление ветра: 
160
Скорость ветра: 
6
Метеорологическая видимость: 
6.21
Явления погоды: 
-SHRA
Условия полета: 
VFR

Авиационная погода в Миккели

Регион: 
Погода METAR: 
EFMI 042250Z AUTO 02004KT 280V090 6000 -SHRA OVC005 ///// Q////
Время наблюдения: 
2020-06-04T22:50:00Z
Направление ветра: 
20
Скорость ветра: 
4
Метеорологическая видимость: 
3.73
Явления погоды: 
-SHRA
Условия полета: 
IFR